sensor_id;sensor_type;location;lat;lon;timestamp;temperature;humidity
30304;DHT22;17112;48.636;10.152;2023-03-01T00:01:59;3.30;56.80
30304;DHT22;17112;48.636;10.152;2023-03-01T00:04:25;3.10;56.80
30304;DHT22;17112;48.636;10.152;2023-03-01T00:06:51;3.30;56.90
30304;DHT22;17112;48.636;10.152;2023-03-01T00:09:17;3.20;57.10
30304;DHT22;17112;48.636;10.152;2023-03-01T00:11:43;3.10;57.10
30304;DHT22;17112;48.636;10.152;2023-03-01T00:14:09;3.10;57.30
30304;DHT22;17112;48.636;10.152;2023-03-01T00:16:37;3.30;57.30
30304;DHT22;17112;48.636;10.152;2023-03-01T00:19:07;3.10;57.20
30304;DHT22;17112;48.636;10.152;2023-03-01T00:21:33;3.30;57.10
30304;DHT22;17112;48.636;10.152;2023-03-01T00:24:00;3.10;57.20
30304;DHT22;17112;48.636;10.152;2023-03-01T00:26:27;3.40;57.40
30304;DHT22;17112;48.636;10.152;2023-03-01T00:28:53;3.10;57.20
30304;DHT22;17112;48.636;10.152;2023-03-01T00:31:26;3.10;57.40
30304;DHT22;17112;48.636;10.152;2023-03-01T00:33:56;3.40;58.00
30304;DHT22;17112;48.636;10.152;2023-03-01T00:36:24;3.10;57.30
30304;DHT22;17112;48.636;10.152;2023-03-01T00:38:50;3.10;57.30
30304;DHT22;17112;48.636;10.152;2023-03-01T00:41:17;3.20;57.30
30304;DHT22;17112;48.636;10.152;2023-03-01T00:43:44;3.10;57.30
30304;DHT22;17112;48.636;10.152;2023-03-01T00:46:12;3.10;57.40
30304;DHT22;17112;48.636;10.152;2023-03-01T00:48:38;3.30;57.50
30304;DHT22;17112;48.636;10.152;2023-03-01T00:51:08;3.20;57.40
30304;DHT22;17112;48.636;10.152;2023-03-01T00:53:34;3.20;57.50
30304;DHT22;17112;48.636;10.152;2023-03-01T00:56:00;3.20;57.40
30304;DHT22;17112;48.636;10.152;2023-03-01T00:58:26;3.20;58.00
30304;DHT22;17112;48.636;10.152;2023-03-01T01:00:52;3.20;57.30
30304;DHT22;17112;48.636;10.152;2023-03-01T01:03:19;3.30;57.30
30304;DHT22;17112;48.636;10.152;2023-03-01T01:05:45;3.30;57.50
30304;DHT22;17112;48.636;10.152;2023-03-01T01:08:11;3.30;57.50
30304;DHT22;17112;48.636;10.152;2023-03-01T01:10:37;3.30;57.40
30304;DHT22;17112;48.636;10.152;2023-03-01T01:13:03;3.30;57.40
30304;DHT22;17112;48.636;10.152;2023-03-01T01:15:29;3.30;57.40
30304;DHT22;17112;48.636;10.152;2023-03-01T01:17:55;3.30;57.40
30304;DHT22;17112;48.636;10.152;2023-03-01T01:20:20;3.30;57.40
30304;DHT22;17112;48.636;10.152;2023-03-01T01:22:46;3.30;57.40
30304;DHT22;17112;48.636;10.152;2023-03-01T01:25:12;3.30;57.40
30304;DHT22;17112;48.636;10.152;2023-03-01T01:27:37;3.40;57.50
30304;DHT22;17112;48.636;10.152;2023-03-01T01:30:04;3.40;57.50
30304;DHT22;17112;48.636;10.152;2023-03-01T01:32:30;3.40;57.60
30304;DHT22;17112;48.636;10.152;2023-03-01T01:34:55;3.40;57.60
30304;DHT22;17112;48.636;10.152;2023-03-01T01:37:21;3.40;57.50
30304;DHT22;17112;48.636;10.152;2023-03-01T01:39:47;3.60;57.50
30304;DHT22;17112;48.636;10.152;2023-03-01T01:42:17;3.40;57.60
30304;DHT22;17112;48.636;10.152;2023-03-01T01:44:46;3.70;57.70
30304;DHT22;17112;48.636;10.152;2023-03-01T01:47:21;3.40;57.60
30304;DHT22;17112;48.636;10.152;2023-03-01T01:49:51;3.40;57.80
30304;DHT22;17112;48.636;10.152;2023-03-01T01:52:22;3.70;57.70
30304;DHT22;17112;48.636;10.152;2023-03-01T01:54:54;3.50;57.50
30304;DHT22;17112;48.636;10.152;2023-03-01T01:57:25;3.40;58.00
30304;DHT22;17112;48.636;10.152;2023-03-01T01:59:55;3.60;57.70
30304;DHT22;17112;48.636;10.152;2023-03-01T02:02:22;3.40;57.40
30304;DHT22;17112;48.636;10.152;2023-03-01T02:04:51;3.40;57.20
30304;DHT22;17112;48.636;10.152;2023-03-01T02:07:22;3.50;57.40
30304;DHT22;17112;48.636;10.152;2023-03-01T02:09:50;3.40;57.40
30304;DHT22;17112;48.636;10.152;2023-03-01T02:12:18;3.40;57.50
30304;DHT22;17112;48.636;10.152;2023-03-01T02:14:44;3.40;57.60
30304;DHT22;17112;48.636;10.152;2023-03-01T02:17:12;3.70;57.70
30304;DHT22;17112;48.636;10.152;2023-03-01T02:22:23;3.30;57.70
30304;DHT22;17112;48.636;10.152;2023-03-01T02:30:23;3.30;57.70
30304;DHT22;17112;48.636;10.152;2023-03-01T02:32:51;3.30;58.00
30304;DHT22;17112;48.636;10.152;2023-03-01T02:35:18;3.40;57.50
30304;DHT22;17112;48.636;10.152;2023-03-01T02:37:44;3.30;57.60
30304;DHT22;17112;48.636;10.152;2023-03-01T02:40:16;3.40;57.80
30304;DHT22;17112;48.636;10.152;2023-03-01T02:43:00;3.30;57.90
30304;DHT22;17112;48.636;10.152;2023-03-01T02:45:27;3.30;58.10
30304;DHT22;17112;48.636;10.152;2023-03-01T02:47:56;3.30;57.80
30304;DHT22;17112;48.636;10.152;2023-03-01T02:50:57;3.30;57.90
30304;DHT22;17112;48.636;10.152;2023-03-01T02:53:43;3.30;58.00
30304;DHT22;17112;48.636;10.152;2023-03-01T02:56:11;3.30;57.90
30304;DHT22;17112;48.636;10.152;2023-03-01T02:58:40;3.30;57.90
30304;DHT22;17112;48.636;10.152;2023-03-01T03:01:12;3.30;58.00
30304;DHT22;17112;48.636;10.152;2023-03-01T03:03:40;3.30;57.70
30304;DHT22;17112;48.636;10.152;2023-03-01T03:06:06;3.30;57.90
30304;DHT22;17112;48.636;10.152;2023-03-01T03:08:32;3.30;57.90
30304;DHT22;17112;48.636;10.152;2023-03-01T03:10:58;3.20;57.80
30304;DHT22;17112;48.636;10.152;2023-03-01T03:13:23;3.20;57.80
30304;DHT22;17112;48.636;10.152;2023-03-01T03:15:54;3.50;58.00
30304;DHT22;17112;48.636;10.152;2023-03-01T03:18:21;3.20;57.90
30304;DHT22;17112;48.636;10.152;2023-03-01T03:20:48;3.20;57.90
30304;DHT22;17112;48.636;10.152;2023-03-01T03:23:21;3.30;58.10
30304;DHT22;17112;48.636;10.152;2023-03-01T03:25:50;3.20;57.90
30304;DHT22;17112;48.636;10.152;2023-03-01T03:28:17;3.30;58.20
30304;DHT22;17112;48.636;10.152;2023-03-01T03:30:43;3.20;58.10
30304;DHT22;17112;48.636;10.152;2023-03-01T03:33:10;3.50;58.20
30304;DHT22;17112;48.636;10.152;2023-03-01T03:35:47;3.20;58.10
30304;DHT22;17112;48.636;10.152;2023-03-01T03:38:14;3.20;58.30
30304;DHT22;17112;48.636;10.152;2023-03-01T03:40:47;3.40;58.30
30304;DHT22;17112;48.636;10.152;2023-03-01T03:43:15;3.30;58.40
30304;DHT22;17112;48.636;10.152;2023-03-01T03:45:44;3.40;58.20
30304;DHT22;17112;48.636;10.152;2023-03-01T03:48:10;3.30;58.40
30304;DHT22;17112;48.636;10.152;2023-03-01T03:50:37;3.50;58.50
30304;DHT22;17112;48.636;10.152;2023-03-01T03:53:05;3.20;58.20
30304;DHT22;17112;48.636;10.152;2023-03-01T03:55:31;3.50;58.40
30304;DHT22;17112;48.636;10.152;2023-03-01T03:58:00;3.20;58.10
30304;DHT22;17112;48.636;10.152;2023-03-01T04:00:33;3.20;58.30
30304;DHT22;17112;48.636;10.152;2023-03-01T04:02:59;3.20;58.20
30304;DHT22;17112;48.636;10.152;2023-03-01T04:05:26;3.20;58.30
30304;DHT22;17112;48.636;10.152;2023-03-01T04:07:52;3.30;58.30
30304;DHT22;17112;48.636;10.152;2023-03-01T04:10:27;3.30;58.40
30304;DHT22;17112;48.636;10.152;2023-03-01T04:12:53;3.30;58.30
30304;DHT22;17112;48.636;10.152;2023-03-01T04:15:21;3.30;58.40
30304;DHT22;17112;48.636;10.152;2023-03-01T04:17:50;3.30;58.30
30304;DHT22;17112;48.636;10.152;2023-03-01T04:20:20;3.40;58.20
30304;DHT22;17112;48.636;10.152;2023-03-01T04:23:00;3.40;58.20
30304;DHT22;17112;48.636;10.152;2023-03-01T04:25:40;3.40;58.20
30304;DHT22;17112;48.636;10.152;2023-03-01T04:28:07;3.40;58.20
30304;DHT22;17112;48.636;10.152;2023-03-01T04:30:34;3.40;58.10
30304;DHT22;17112;48.636;10.152;2023-03-01T04:33:05;3.40;58.00
30304;DHT22;17112;48.636;10.152;2023-03-01T04:35:31;3.40;57.90
30304;DHT22;17112;48.636;10.152;2023-03-01T04:37:58;3.50;57.90
30304;DHT22;17112;48.636;10.152;2023-03-01T04:40:23;3.50;57.90
30304;DHT22;17112;48.636;10.152;2023-03-01T04:42:49;3.50;57.80
30304;DHT22;17112;48.636;10.152;2023-03-01T04:45:15;3.50;58.00
30304;DHT22;17112;48.636;10.152;2023-03-01T04:47:42;3.50;57.80
30304;DHT22;17112;48.636;10.152;2023-03-01T04:50:11;3.50;57.80
30304;DHT22;17112;48.636;10.152;2023-03-01T04:52:37;3.50;57.80
30304;DHT22;17112;48.636;10.152;2023-03-01T04:55:03;3.50;57.70
30304;DHT22;17112;48.636;10.152;2023-03-01T04:57:30;3.50;57.60
30304;DHT22;17112;48.636;10.152;2023-03-01T04:59:55;3.50;57.70
30304;DHT22;17112;48.636;10.152;2023-03-01T05:02:21;3.70;57.80
30304;DHT22;17112;48.636;10.152;2023-03-01T05:04:47;3.40;57.60
30304;DHT22;17112;48.636;10.152;2023-03-01T05:07:12;3.60;57.70
30304;DHT22;17112;48.636;10.152;2023-03-01T05:09:46;3.50;57.80
30304;DHT22;17112;48.636;10.152;2023-03-01T05:12:13;3.30;57.60
30304;DHT22;17112;48.636;10.152;2023-03-01T05:14:39;3.30;57.80
30304;DHT22;17112;48.636;10.152;2023-03-01T05:17:05;3.20;57.80
30304;DHT22;17112;48.636;10.152;2023-03-01T05:19:31;3.20;57.70
30304;DHT22;17112;48.636;10.152;2023-03-01T05:21:58;3.10;57.90
30304;DHT22;17112;48.636;10.152;2023-03-01T05:24:28;3.10;58.10
30304;DHT22;17112;48.636;10.152;2023-03-01T05:26:54;3.10;58.10
30304;DHT22;17112;48.636;10.152;2023-03-01T05:29:21;3.00;58.20
30304;DHT22;17112;48.636;10.152;2023-03-01T05:32:00;3.20;58.10
30304;DHT22;17112;48.636;10.152;2023-03-01T05:34:33;2.90;58.20
30304;DHT22;17112;48.636;10.152;2023-03-01T05:37:01;2.90;58.10
30304;DHT22;17112;48.636;10.152;2023-03-01T05:39:28;3.10;58.40
30304;DHT22;17112;48.636;10.152;2023-03-01T05:41:58;2.90;58.20
30304;DHT22;17112;48.636;10.152;2023-03-01T05:44:25;3.00;58.50
30304;DHT22;17112;48.636;10.152;2023-03-01T05:46:51;2.80;58.30
30304;DHT22;17112;48.636;10.152;2023-03-01T05:49:18;3.10;58.40
30304;DHT22;17112;48.636;10.152;2023-03-01T05:51:52;2.80;58.20
30304;DHT22;17112;48.636;10.152;2023-03-01T05:54:19;2.80;58.50
30304;DHT22;17112;48.636;10.152;2023-03-01T05:56:45;2.70;58.40
30304;DHT22;17112;48.636;10.152;2023-03-01T05:59:12;2.70;58.30
30304;DHT22;17112;48.636;10.152;2023-03-01T06:01:39;2.70;59.00
30304;DHT22;17112;48.636;10.152;2023-03-01T06:04:05;2.70;58.30
30304;DHT22;17112;48.636;10.152;2023-03-01T06:06:34;2.80;58.60
30304;DHT22;17112;48.636;10.152;2023-03-01T06:09:03;2.60;58.50
30304;DHT22;17112;48.636;10.152;2023-03-01T06:11:28;2.60;58.60
30304;DHT22;17112;48.636;10.152;2023-03-01T06:13:54;2.60;58.60
30304;DHT22;17112;48.636;10.152;2023-03-01T06:16:19;2.60;58.60
30304;DHT22;17112;48.636;10.152;2023-03-01T06:18:45;2.60;58.70
30304;DHT22;17112;48.636;10.152;2023-03-01T06:21:11;2.50;58.70
30304;DHT22;17112;48.636;10.152;2023-03-01T06:23:36;2.50;59.00
30304;DHT22;17112;48.636;10.152;2023-03-01T06:26:06;2.50;58.80
30304;DHT22;17112;48.636;10.152;2023-03-01T06:28:32;2.50;59.00
30304;DHT22;17112;48.636;10.152;2023-03-01T06:30:58;2.40;58.80
30304;DHT22;17112;48.636;10.152;2023-03-01T06:33:24;2.50;59.10
30304;DHT22;17112;48.636;10.152;2023-03-01T06:35:50;2.40;58.90
30304;DHT22;17112;48.636;10.152;2023-03-01T06:38:16;2.50;59.00
30304;DHT22;17112;48.636;10.152;2023-03-01T06:40:44;2.80;59.10
30304;DHT22;17112;48.636;10.152;2023-03-01T06:43:10;2.50;59.00
30304;DHT22;17112;48.636;10.152;2023-03-01T06:45:37;2.50;59.10
30304;DHT22;17112;48.636;10.152;2023-03-01T06:48:06;2.60;59.00
30304;DHT22;17112;48.636;10.152;2023-03-01T06:50:33;2.50;59.20
30304;DHT22;17112;48.636;10.152;2023-03-01T06:52:59;2.50;59.10
30304;DHT22;17112;48.636;10.152;2023-03-01T06:55:25;2.60;59.10
30304;DHT22;17112;48.636;10.152;2023-03-01T06:57:58;2.60;59.10
30304;DHT22;17112;48.636;10.152;2023-03-01T07:00:26;2.60;59.20
30304;DHT22;17112;48.636;10.152;2023-03-01T07:02:52;2.70;59.00
30304;DHT22;17112;48.636;10.152;2023-03-01T07:05:18;2.70;59.00
30304;DHT22;17112;48.636;10.152;2023-03-01T07:07:44;2.70;59.00
30304;DHT22;17112;48.636;10.152;2023-03-01T07:10:10;2.80;59.10
30304;DHT22;17112;48.636;10.152;2023-03-01T07:12:36;2.80;58.90
30304;DHT22;17112;48.636;10.152;2023-03-01T07:15:02;3.00;59.10
30304;DHT22;17112;48.636;10.152;2023-03-01T07:17:28;2.90;59.10
30304;DHT22;17112;48.636;10.152;2023-03-01T07:19:53;3.30;59.20
30304;DHT22;17112;48.636;10.152;2023-03-01T07:22:19;3.00;58.80
30304;DHT22;17112;48.636;10.152;2023-03-01T07:24:44;3.10;58.80
30304;DHT22;17112;48.636;10.152;2023-03-01T07:27:10;3.10;58.70
30304;DHT22;17112;48.636;10.152;2023-03-01T07:29:36;3.20;58.60
30304;DHT22;17112;48.636;10.152;2023-03-01T07:32:03;3.60;58.70
30304;DHT22;17112;48.636;10.152;2023-03-01T07:34:29;3.30;58.40
30304;DHT22;17112;48.636;10.152;2023-03-01T07:36:54;3.40;58.40
30304;DHT22;17112;48.636;10.152;2023-03-01T07:39:20;3.70;58.40
30304;DHT22;17112;48.636;10.152;2023-03-01T07:41:48;3.60;58.20
30304;DHT22;17112;48.636;10.152;2023-03-01T07:44:14;3.60;57.90
30304;DHT22;17112;48.636;10.152;2023-03-01T07:46:40;3.70;58.00
30304;DHT22;17112;48.636;10.152;2023-03-01T07:49:06;3.80;57.90
30304;DHT22;17112;48.636;10.152;2023-03-01T07:51:32;3.90;57.70
30304;DHT22;17112;48.636;10.152;2023-03-01T07:53:58;3.90;57.60
30304;DHT22;17112;48.636;10.152;2023-03-01T07:56:23;4.00;57.60
30304;DHT22;17112;48.636;10.152;2023-03-01T07:58:49;4.10;57.50
30304;DHT22;17112;48.636;10.152;2023-03-01T08:01:17;4.20;57.50
30304;DHT22;17112;48.636;10.152;2023-03-01T08:03:43;4.30;57.40
30304;DHT22;17112;48.636;10.152;2023-03-01T08:06:11;4.40;57.30
30304;DHT22;17112;48.636;10.152;2023-03-01T08:08:37;4.50;57.10
30304;DHT22;17112;48.636;10.152;2023-03-01T08:11:05;4.60;56.90
30304;DHT22;17112;48.636;10.152;2023-03-01T08:13:31;4.70;56.80
30304;DHT22;17112;48.636;10.152;2023-03-01T08:16:02;4.70;56.70
30304;DHT22;17112;48.636;10.152;2023-03-01T08:18:28;4.80;56.50
30304;DHT22;17112;48.636;10.152;2023-03-01T08:20:53;4.90;56.60
30304;DHT22;17112;48.636;10.152;2023-03-01T08:23:19;4.90;56.50
30304;DHT22;17112;48.636;10.152;2023-03-01T08:25:44;5.00;56.10
30304;DHT22;17112;48.636;10.152;2023-03-01T08:28:10;5.10;56.20
30304;DHT22;17112;48.636;10.152;2023-03-01T08:30:36;5.20;56.30
30304;DHT22;17112;48.636;10.152;2023-03-01T08:33:01;5.30;56.30
30304;DHT22;17112;48.636;10.152;2023-03-01T08:35:27;5.40;56.20
30304;DHT22;17112;48.636;10.152;2023-03-01T08:37:53;5.50;56.10
30304;DHT22;17112;48.636;10.152;2023-03-01T08:40:18;5.60;55.30
30304;DHT22;17112;48.636;10.152;2023-03-01T08:42:44;5.60;55.40
30304;DHT22;17112;48.636;10.152;2023-03-01T08:45:10;5.70;55.80
30304;DHT22;17112;48.636;10.152;2023-03-01T08:47:36;5.80;55.30
30304;DHT22;17112;48.636;10.152;2023-03-01T08:50:02;5.90;54.70
30304;DHT22;17112;48.636;10.152;2023-03-01T08:52:28;5.90;54.70
30304;DHT22;17112;48.636;10.152;2023-03-01T08:54:55;6.00;54.60
30304;DHT22;17112;48.636;10.152;2023-03-01T08:57:21;6.00;54.00
30304;DHT22;17112;48.636;10.152;2023-03-01T08:59:47;6.00;54.50
30304;DHT22;17112;48.636;10.152;2023-03-01T09:02:16;6.10;54.40
30304;DHT22;17112;48.636;10.152;2023-03-01T09:04:42;6.10;54.30
30304;DHT22;17112;48.636;10.152;2023-03-01T09:07:08;6.20;53.10
30304;DHT22;17112;48.636;10.152;2023-03-01T09:09:34;6.20;54.00
30304;DHT22;17112;48.636;10.152;2023-03-01T09:12:01;6.30;54.00
30304;DHT22;17112;48.636;10.152;2023-03-01T09:14:27;6.30;54.00
30304;DHT22;17112;48.636;10.152;2023-03-01T09:16:53;6.30;53.70
30304;DHT22;17112;48.636;10.152;2023-03-01T09:19:19;6.30;53.60
30304;DHT22;17112;48.636;10.152;2023-03-01T09:21:44;6.40;54.10
30304;DHT22;17112;48.636;10.152;2023-03-01T09:24:19;6.40;54.00
30304;DHT22;17112;48.636;10.152;2023-03-01T09:26:45;6.40;53.60
30304;DHT22;17112;48.636;10.152;2023-03-01T09:29:14;6.50;54.30
30304;DHT22;17112;48.636;10.152;2023-03-01T09:31:41;6.50;53.80
30304;DHT22;17112;48.636;10.152;2023-03-01T09:34:07;6.50;53.80
30304;DHT22;17112;48.636;10.152;2023-03-01T09:36:33;6.60;54.20
30304;DHT22;17112;48.636;10.152;2023-03-01T09:38:59;6.70;54.20
30304;DHT22;17112;48.636;10.152;2023-03-01T09:42:00;6.70;53.40
30304;DHT22;17112;48.636;10.152;2023-03-01T09:47:00;7.00;53.30
30304;DHT22;17112;48.636;10.152;2023-03-01T09:49:40;7.00;53.20
30304;DHT22;17112;48.636;10.152;2023-03-01T09:54:54;7.10;52.50
30304;DHT22;17112;48.636;10.152;2023-03-01T10:02:49;7.20;52.80
30304;DHT22;17112;48.636;10.152;2023-03-01T10:05:50;7.20;52.80
30304;DHT22;17112;48.636;10.152;2023-03-01T10:10:57;7.30;52.60
30304;DHT22;17112;48.636;10.152;2023-03-01T10:16:34;7.40;52.60
30304;DHT22;17112;48.636;10.152;2023-03-01T10:19:05;7.60;52.80
30304;DHT22;17112;48.636;10.152;2023-03-01T10:21:35;7.60;52.80
30304;DHT22;17112;48.636;10.152;2023-03-01T10:24:13;7.70;53.00
30304;DHT22;17112;48.636;10.152;2023-03-01T10:26:54;7.80;52.40
30304;DHT22;17112;48.636;10.152;2023-03-01T10:29:25;7.90;52.50
30304;DHT22;17112;48.636;10.152;2023-03-01T10:31:52;7.90;52.20
30304;DHT22;17112;48.636;10.152;2023-03-01T10:34:35;8.00;52.20
30304;DHT22;17112;48.636;10.152;2023-03-01T10:39:35;8.20;52.10
30304;DHT22;17112;48.636;10.152;2023-03-01T10:42:03;8.20;51.70
30304;DHT22;17112;48.636;10.152;2023-03-01T10:44:45;8.30;52.10
30304;DHT22;17112;48.636;10.152;2023-03-01T10:47:16;8.40;51.60
30304;DHT22;17112;48.636;10.152;2023-03-01T10:49:59;8.50;51.80
30304;DHT22;17112;48.636;10.152;2023-03-01T10:52:28;8.50;51.70
30304;DHT22;17112;48.636;10.152;2023-03-01T10:54:59;8.60;51.90
30304;DHT22;17112;48.636;10.152;2023-03-01T10:57:35;8.70;51.60
30304;DHT22;17112;48.636;10.152;2023-03-01T11:00:24;8.80;51.50
30304;DHT22;17112;48.636;10.152;2023-03-01T11:05:26;8.90;51.40
30304;DHT22;17112;48.636;10.152;2023-03-01T11:07:58;9.10;51.50
30304;DHT22;17112;48.636;10.152;2023-03-01T11:10:31;9.10;51.40
30304;DHT22;17112;48.636;10.152;2023-03-01T11:13:17;9.30;51.40
30304;DHT22;17112;48.636;10.152;2023-03-01T11:16:02;9.40;50.90
30304;DHT22;17112;48.636;10.152;2023-03-01T11:18:30;9.50;50.20
30304;DHT22;17112;48.636;10.152;2023-03-01T11:20:56;9.50;50.90
30304;DHT22;17112;48.636;10.152;2023-03-01T11:23:24;9.60;50.90
30304;DHT22;17112;48.636;10.152;2023-03-01T11:26:06;9.60;50.90
30304;DHT22;17112;48.636;10.152;2023-03-01T11:28:35;9.70;50.30
30304;DHT22;17112;48.636;10.152;2023-03-01T11:31:07;9.70;50.70
30304;DHT22;17112;48.636;10.152;2023-03-01T11:33:53;9.80;50.20
30304;DHT22;17112;48.636;10.152;2023-03-01T11:36:56;9.90;50.20
30304;DHT22;17112;48.636;10.152;2023-03-01T11:39:49;9.90;50.50
30304;DHT22;17112;48.636;10.152;2023-03-01T11:42:25;10.00;50.40
30304;DHT22;17112;48.636;10.152;2023-03-01T11:44:55;10.10;50.20
30304;DHT22;17112;48.636;10.152;2023-03-01T11:47:47;10.20;50.30
30304;DHT22;17112;48.636;10.152;2023-03-01T11:53:16;10.30;49.70
30304;DHT22;17112;48.636;10.152;2023-03-01T11:55:51;10.40;49.90
30304;DHT22;17112;48.636;10.152;2023-03-01T12:01:09;10.50;49.30
30304;DHT22;17112;48.636;10.152;2023-03-01T12:20:20;10.80;50.40
30304;DHT22;17112;48.636;10.152;2023-03-01T12:23:03;10.80;49.10
30304;DHT22;17112;48.636;10.152;2023-03-01T12:31:32;11.00;49.00
30304;DHT22;17112;48.636;10.152;2023-03-01T12:37:10;11.20;49.20
30304;DHT22;17112;48.636;10.152;2023-03-01T12:39:45;11.30;49.70
30304;DHT22;17112;48.636;10.152;2023-03-01T12:50:43;11.70;48.80
30304;DHT22;17112;48.636;10.152;2023-03-01T12:53:32;11.80;47.00
30304;DHT22;17112;48.636;10.152;2023-03-01T12:56:08;11.80;47.80
30304;DHT22;17112;48.636;10.152;2023-03-01T13:04:37;12.10;47.60
30304;DHT22;17112;48.636;10.152;2023-03-01T13:10:39;12.30;46.10
30304;DHT22;17112;48.636;10.152;2023-03-01T13:15:35;12.40;47.50
30304;DHT22;17112;48.636;10.152;2023-03-01T13:20:55;12.50;45.60
30304;DHT22;17112;48.636;10.152;2023-03-01T13:30:57;12.60;45.50
30304;DHT22;17112;48.636;10.152;2023-03-01T13:35:56;12.70;46.50
30304;DHT22;17112;48.636;10.152;2023-03-01T13:38:44;12.70;45.80
30304;DHT22;17112;48.636;10.152;2023-03-01T13:41:15;12.80;45.20
30304;DHT22;17112;48.636;10.152;2023-03-01T13:43:42;12.80;46.20
30304;DHT22;17112;48.636;10.152;2023-03-01T13:46:11;12.80;46.30
30304;DHT22;17112;48.636;10.152;2023-03-01T13:48:39;12.80;45.90
30304;DHT22;17112;48.636;10.152;2023-03-01T13:51:09;12.90;46.00
30304;DHT22;17112;48.636;10.152;2023-03-01T13:53:39;12.80;46.00
30304;DHT22;17112;48.636;10.152;2023-03-01T13:56:15;12.90;46.10
30304;DHT22;17112;48.636;10.152;2023-03-01T14:01:25;13.00;45.70
30304;DHT22;17112;48.636;10.152;2023-03-01T14:03:51;13.00;45.90
30304;DHT22;17112;48.636;10.152;2023-03-01T14:06:24;13.00;45.60
30304;DHT22;17112;48.636;10.152;2023-03-01T14:08:59;13.00;45.40
30304;DHT22;17112;48.636;10.152;2023-03-01T14:14:32;13.10;44.90
30304;DHT22;17112;48.636;10.152;2023-03-01T14:22:42;13.30;44.60
30304;DHT22;17112;48.636;10.152;2023-03-01T14:28:02;13.30;44.30
30304;DHT22;17112;48.636;10.152;2023-03-01T14:30:37;13.30;44.90
30304;DHT22;17112;48.636;10.152;2023-03-01T14:33:16;13.30;44.90
30304;DHT22;17112;48.636;10.152;2023-03-01T14:35:42;13.20;45.20
30304;DHT22;17112;48.636;10.152;2023-03-01T14:38:38;13.30;45.20
30304;DHT22;17112;48.636;10.152;2023-03-01T14:41:26;13.30;45.00
30304;DHT22;17112;48.636;10.152;2023-03-01T14:44:06;13.30;44.50
30304;DHT22;17112;48.636;10.152;2023-03-01T14:46:38;13.40;44.90
30304;DHT22;17112;48.636;10.152;2023-03-01T14:51:52;13.40;44.70
30304;DHT22;17112;48.636;10.152;2023-03-01T14:54:29;13.40;44.80
30304;DHT22;17112;48.636;10.152;2023-03-01T14:57:01;13.40;44.80
30304;DHT22;17112;48.636;10.152;2023-03-01T14:59:28;13.40;44.60
30304;DHT22;17112;48.636;10.152;2023-03-01T15:01:56;13.40;44.80
30304;DHT22;17112;48.636;10.152;2023-03-01T15:04:23;13.50;44.70
30304;DHT22;17112;48.636;10.152;2023-03-01T15:06:53;13.50;44.90
30304;DHT22;17112;48.636;10.152;2023-03-01T15:09:21;13.50;44.60
30304;DHT22;17112;48.636;10.152;2023-03-01T15:11:47;13.60;44.40
30304;DHT22;17112;48.636;10.152;2023-03-01T15:14:39;13.60;44.50
30304;DHT22;17112;48.636;10.152;2023-03-01T15:17:26;13.60;43.70
30304;DHT22;17112;48.636;10.152;2023-03-01T15:19:54;13.60;43.50
30304;DHT22;17112;48.636;10.152;2023-03-01T15:22:22;13.60;44.20
30304;DHT22;17112;48.636;10.152;2023-03-01T15:24:49;13.60;44.80
30304;DHT22;17112;48.636;10.152;2023-03-01T15:27:18;13.60;44.20
30304;DHT22;17112;48.636;10.152;2023-03-01T15:30:00;13.60;44.30
30304;DHT22;17112;48.636;10.152;2023-03-01T15:32:29;13.70;43.70
30304;DHT22;17112;48.636;10.152;2023-03-01T15:34:56;13.80;44.30
30304;DHT22;17112;48.636;10.152;2023-03-01T15:37:45;13.90;44.20
30304;DHT22;17112;48.636;10.152;2023-03-01T15:40:25;13.90;43.20
30304;DHT22;17112;48.636;10.152;2023-03-01T15:43:01;14.00;43.20
30304;DHT22;17112;48.636;10.152;2023-03-01T15:45:29;14.10;43.10
30304;DHT22;17112;48.636;10.152;2023-03-01T15:50:28;14.20;42.30
30304;DHT22;17112;48.636;10.152;2023-03-01T15:52:56;14.20;42.20
30304;DHT22;17112;48.636;10.152;2023-03-01T15:55:28;14.20;42.30
30304;DHT22;17112;48.636;10.152;2023-03-01T15:58:20;14.20;41.90
30304;DHT22;17112;48.636;10.152;2023-03-01T16:00:47;14.20;41.20
30304;DHT22;17112;48.636;10.152;2023-03-01T16:03:14;14.20;41.80
30304;DHT22;17112;48.636;10.152;2023-03-01T16:05:47;14.20;42.00
30304;DHT22;17112;48.636;10.152;2023-03-01T16:08:13;14.10;41.30
30304;DHT22;17112;48.636;10.152;2023-03-01T16:10:40;13.90;41.30
30304;DHT22;17112;48.636;10.152;2023-03-01T16:13:12;13.60;41.30
30304;DHT22;17112;48.636;10.152;2023-03-01T16:15:37;13.40;41.60
30304;DHT22;17112;48.636;10.152;2023-03-01T16:18:05;13.10;41.60
30304;DHT22;17112;48.636;10.152;2023-03-01T16:20:32;12.90;41.90
30304;DHT22;17112;48.636;10.152;2023-03-01T16:22:59;12.60;42.10
30304;DHT22;17112;48.636;10.152;2023-03-01T16:25:29;12.50;42.40
30304;DHT22;17112;48.636;10.152;2023-03-01T16:27:55;12.30;42.50
30304;DHT22;17112;48.636;10.152;2023-03-01T16:30:22;12.00;42.70
30304;DHT22;17112;48.636;10.152;2023-03-01T16:32:49;11.90;42.70
30304;DHT22;17112;48.636;10.152;2023-03-01T16:35:17;11.70;43.20
30304;DHT22;17112;48.636;10.152;2023-03-01T16:37:44;11.50;43.40
30304;DHT22;17112;48.636;10.152;2023-03-01T16:40:20;11.40;43.60
30304;DHT22;17112;48.636;10.152;2023-03-01T16:42:47;11.20;43.60
30304;DHT22;17112;48.636;10.152;2023-03-01T16:45:13;11.10;43.80
30304;DHT22;17112;48.636;10.152;2023-03-01T16:47:39;10.90;43.70
30304;DHT22;17112;48.636;10.152;2023-03-01T16:50:04;10.80;44.10
30304;DHT22;17112;48.636;10.152;2023-03-01T16:52:30;10.70;44.30
30304;DHT22;17112;48.636;10.152;2023-03-01T16:54:56;10.60;44.60
30304;DHT22;17112;48.636;10.152;2023-03-01T16:57:22;10.50;44.70
30304;DHT22;17112;48.636;10.152;2023-03-01T16:59:51;10.40;45.00
30304;DHT22;17112;48.636;10.152;2023-03-01T17:02:18;10.30;45.20
30304;DHT22;17112;48.636;10.152;2023-03-01T17:04:51;10.20;45.80
30304;DHT22;17112;48.636;10.152;2023-03-01T17:07:17;10.10;45.40
30304;DHT22;17112;48.636;10.152;2023-03-01T17:09:43;10.10;45.60
30304;DHT22;17112;48.636;10.152;2023-03-01T17:12:11;10.00;45.70
30304;DHT22;17112;48.636;10.152;2023-03-01T17:14:36;9.90;45.70
30304;DHT22;17112;48.636;10.152;2023-03-01T17:17:03;9.80;45.90
30304;DHT22;17112;48.636;10.152;2023-03-01T17:19:29;9.80;46.00
30304;DHT22;17112;48.636;10.152;2023-03-01T17:21:54;9.70;46.10
30304;DHT22;17112;48.636;10.152;2023-03-01T17:24:20;9.60;46.20
30304;DHT22;17112;48.636;10.152;2023-03-01T17:26:46;9.50;46.20
30304;DHT22;17112;48.636;10.152;2023-03-01T17:29:11;9.50;46.20
30304;DHT22;17112;48.636;10.152;2023-03-01T17:31:38;9.40;46.40
30304;DHT22;17112;48.636;10.152;2023-03-01T17:34:03;9.30;46.50
30304;DHT22;17112;48.636;10.152;2023-03-01T17:36:29;9.20;46.60